Latest Observation

42 Stations

15 Minute Data | America/Los_Angeles
as of 9/4/26 1:44 AM PDT
Station Date Time Temp (°F) RH (%) Dew Pt (°F) Wind Spd (mph) Wind Dir (°) Wind Gust (mph) Latest Rain (In) Daily Rain (In) Daily Min Temp (°F) Daily Max Temp (°F) Daily Max Wind (mph)
Elk Mt. Farm 8/13/26 1500 85.6   7.4 - - - - - - - 51.4   1.1 85.6   7.4 -
Upper Lake 9/4/26 0130 48.6   11.4 96   24 47.6   3.4 1.4 NNW | 329 5.3   2.1 0.00 0.00 47.0   13.0 49.1   11.2 5.3   2.1
Scotts Valley 9/4/26 0130 42.3   16.1 96   20 41.1   9.5 0.0 SW | 219 0.5   3.2 0.00 0.00 42.0   16.4 42.8   15.8 1.3   2.4
Scotts Valley-South (Bella Vista) 9/4/26 0130 44.9   13.7 93   21 43.2   6.7 0.3 SSW | 194 1.5   2.6 0.00 0.00 44.6   14.0 45.5   13.2 2.0   3.5
Kelseyville 9/4/26 0130 48.1   10.9 96   21 47.0   4.1 1.2 S | 174 2.8   1.1 0.00 0.00 47.7   11.2 49.3   9.8 2.8   2.6
Kelseyville Remote 9/4/26 0130 49.3   10.2 87   20 45.6   3.0 - - - 0.00 0.00 48.8   10.5 50.1   9.6 -
Kelseyville (Clark Drive) 9/4/26 0130 47.3   11.4 - - - - - 0.00 0.00 46.9   11.6 48.5   10.4 -
Kelsey Bench (Oaklea) 9/4/26 0130 49.1   8.4 96   21 48.0   1.5 2.4 SSE | 162 3.4   1.9 0.00 0.00 49.0   8.5 49.4   8.2 3.4   4.4
Smith Lane (Kelseyville-South) 9/4/26 0130 45.5   13.5 94   19 43.9   7.0 0.0 N | 0 0.0   7.1 0.00 0.00 45.5   13.4 47.3   11.8 1.5   5.6
Bell Hill-West 9/4/26 0130 48.0   10.0 100   16 48.0   5.1 3.2 SSW | 202 4.4   1.7 0.00 0.00 47.8   9.8 48.8   10.0 4.4   0.7
High Valley Ridgeline (Brassfield) 9/3/26 1430 64.3   0.5 52   2 46.4   1.6 12.2 WSW | 242 17.9   7.4 0.00 0.01 55.0   3.7 66.3   0.1 20.5   5.3
Wight Way (Adobe Creek) 9/4/26 0100 48.2   8.4 96   19 47.2   2.5 0.9 E | 94 2.6   2.6 0.00 0.03 47.6   5.6 76.9   3.8 17.8   4.2
Ridgeline Top (Brassfield) 9/3/26 1430 66.6   0.4 - - - - - - - 54.8   3.7 69.7   1.1 -
Ridgeline Low (Brassfield) 9/3/26 1430 66.8   0.7 - - - - - - - 56.8   4.6 67.8   0.9 -
Long Valley (Shannon) 6/29/26 1400 84.9   4.6 25   1 44.9   3.2 2.9 ENE | 75 10.2   0.4 0.00 0.00 46.4   0.4 86.9   6.5 13.7   1.8
High Valley Winery 9/3/26 1430 65.6   2.0 49   1 45.9   1.2 9.6 WSW | 238 17.0   7.0 0.00 0.01 57.3   4.2 67.3   2.2 17.0   1.1
Round Mtn Rd. 9/4/26 0015 52.3   4.5 - - - - - - - 52.1   0.4 69.0   2.4 -
Circle O 9/4/26 0130 50.6   5.5 - - - - - - - 49.5   6.5 50.9   5.5 -
Robertsbridge Vineyards 9/4/26 0130 46.2   10.4 95   18 44.8   4.5 - - - - - 45.6   10.9 46.8   9.9 -
Urgency Vineyard 9/4/26 0130 50.4   5.0 89   14 47.2   0.3 2.5 SW | 216 5.2   2.3 0.00 0.00 50.4   5.0 51.8   4.2 5.2   3.4
Red Hills (Beckstoffer) 9/4/26 0130 49.8   5.7 93   14 47.7   1.3 - - - 0.00 0.00 49.8   5.7 52.2   3.6 -
Winters (Shannon) 9/4/26 0130 50.8   0.5 87   3 47.0   0.4 4.5 WSW | 250 10.4   6.7 0.00 0.00 50.8   0.8 51.5   1.0 10.4   5.8
Secret Pond (Shannon) 9/4/26 0130 49.8   3.7 88   12 46.5   0.4 2.6 NW | 317 7.6   2.7 0.00 0.00 49.6   2.1 50.0   3.5 7.8   2.9
Rolling Knolls (Shannon) 9/4/26 0130 53.6   2.5 81   1 47.9   2.7 4.2 WNW | 292 13.0   10.2 0.00 0.00 52.7   1.7 53.6   1.5 13.0   10.2
Lower Lake 9/4/26 0130 53.2   0.1 85   4 49.0   1.4 9.1 W | 278 14.2   10.9 0.00 0.00 53.2   0.1 53.6   1.2 14.2   10.7
Adamson Ranch 9/4/26 0130 52.0   6.1 84   12 47.2   1.9 1.9 NE | 46 5.9   1.3 0.00 0.00 51.4   6.7 53.5   6.4 5.9   0.4
Middletown (Diamond D) 9/4/26 0130 50.8   7.2 89   7 47.6   4.9 0.1 N | 354 2.1   6.7 0.00 0.00 49.8   8.0 52.4   5.7 4.0   7.3
Middletown-West (Domaine Helena) 9/4/26 0130 52.7   3.1 90   3 49.8   2.1 4.2 S | 188 7.0   1.3 0.00 0.00 52.4   3.2 55.5   1.0 11.0   1.1
Middletown-South 9/4/26 0130 51.1   5.9 94   12 49.6   2.2 1.2 SSW | 202 2.7   11.3 0.00 0.00 50.8   6.0 52.0   5.3 2.7   11.6
Jim Davis (Langtry) 9/4/26 0130 54.6   4.2 84   9 50.0   1.1 3.2 WNW | 288 5.9   9.7 0.00 0.00 51.8   7.0 54.6   4.7 6.0   11.3
Napa Valley Basin 9/4/26 0130 50.3   4.9 89   11 47.1   1.4 1.0 NW | 308 2.3   0.7 0.00 0.00 50.0   4.3 51.6   4.2 3.1   0.1
Lower Bohn 9/4/26 0130 50.2   10.4 88   19 46.7   3.5 1.8 WSW | 250 3.2   14.5 0.00 0.00 49.5   10.7 53.8   7.2 3.2   14.5
Upper Bohn-North 9/4/26 0130 50.0   8.2 95   21 48.5   1.4 0.5 SE | 135 1.6   0.9 0.00 0.00 49.8   8.4 52.9   7.2 1.6   3.4
Snell Peak Blk#9 9/4/26 0130 53.6   3.3 90   14 50.7   1.5 1.4 W | 269 2.8   0.2 0.00 0.00 52.6   4.4 55.1   2.8 2.8   0.2
Coyote Lake West 9/4/26 0130 53.0   4.6 85   10 48.7   1.1 0.0 WNW | 282 1.1   2.1 0.00 0.00 53.0   4.1 55.5   2.5 2.0   1.2
Coyote Lake Northeast 9/4/26 0130 53.0   4.6 85   9 48.6   1.5 - - - - - 52.9   3.7 56.5   1.2 -
Coyote Lake East 9/4/26 0130 49.1   4.3 90   5 46.2   2.8 - - - - - 49.1   4.2 51.1   3.1 -
Morgan Valley 9/3/26 0745 55.2   2.2 100   0 55.2   2.2 5.8 SSW | 206 8.9   1.9 0.00 0.00 51.6   0.0 56.0   2.3 22.2   5.7
Mine Pit North 9/3/26 0730 55.4   0.0 91   2 52.8   0.5 12.3 SSW | 196 17.9   6.0 - - 52.4   0.3 56.0   0.2 19.0   1.5
Mine Pit South 9/3/26 0730 56.1   1.2 89   2 53.0   1.9 7.3 SSW | 212 12.7   4.8 0.00 0.00 52.5   1.2 56.4   1.1 13.4   0.8
Cow Mountain 9/4/26 0130 46.4   3.2 - - 9.6 W | 276 14.9   8.5 0.00 0.00 46.2   2.9 46.6   3.3 14.9   8.5
Ukiah-SE (Ruddick) 9/4/26 0130 47.9   12.7 94   24 46.2   4.5 0.3 S | 185 1.8   6.5 0.00 0.00 47.8   12.8 48.8   11.9 1.8   6.5
Max     54.6 100 50.7 9.6 - 14.9 0.00 0.03 53.2 76.9 17.8
Avg     49.7 91 47.2 2.3 - 4.9 0.00 - - - -
Min     42.3 81 41.1 0.0 - 0.0 0.00 0.00 42.0 42.8 1.3